MSC Ingrid — HOHA — position and weather

sailwx.info

Track history (hours):
 
Tides and Currents Weather Stations Pressure Air Temp Water Temp Dewpoint Dewpoint Depression Visibility Wind Speed Wind Dir Waves Ship Positions

MSC Ingrid

Last reported at 2016-Feb-09 20:29 UTC. Time now 2016-Feb-09 20:40 UTC.
Position N 39°26' W 000°20'.

Length 294 m; draft 8.2 m.

Type: Ship (hazmat cat A). MMSI: 354505000.

Date/timePositionNaut miles runAvg speedWind from/ knotsBaromVisibWave heightAir tempDewpointWater temp
2016-Feb-09 20:29N 39°26' W 000°20'0 0.0
2016-Feb-09 19:32N 39°26' W 000°20'0 0.0
2016-Feb-09 18:29N 39°26' W 000°20'0 0.0
2016-Feb-09 17:23N 39°26' W 000°20'4 4.6
2016-Feb-09 16:33N 39°25' W 000°15'7 6.3
2016-Feb-09 15:23N 39°25' W 000°05'6315.0
2016-Feb-09 11:12N 39°20' E 001°16'1219.3
2016-Feb-09 10:33N 39°20' E 001°32'2019.7
2016-Feb-09 09:33N 39°15' E 001°56'2121.4
2016-Feb-09 08:33N 39°05' E 002°21'2221.7
2016-Feb-09 07:33N 38°55' E 002°46'2120.9
2016-Feb-09 06:33N 38°50' E 003°12'2121.0
2016-Feb-09 05:33N 38°49' E 003°39'23121.0
2016-Feb-08 18:33N 38°37' E 008°35'18918.1
2016-Feb-08 08:05N 38°28' E 012°36'1221.8
2016-Feb-08 07:33N 38°27' E 012°51'2221.7
2016-Feb-08 06:34N 38°25' E 013°19'2221.7
2016-Feb-08 05:34N 38°23' E 013°46'2222.0
2016-Feb-08 04:33N 38°22' E 014°14'2822.1
2016-Feb-08 03:18N 38°19' E 014°50'1621.5
2016-Feb-08 02:33N 38°21' E 015°10'2221.4
2016-Feb-08 01:33N 38°26' E 015°37'1413.9
2016-Feb-08 00:33N 38°27' E 015°54'0 0.4
2016-Feb-07 23:34N 38°28' E 015°55'0 0.0
2016-Feb-07 22:30N 38°28' E 015°55'0 0.0
2016-Feb-07 21:33N 38°28' E 015°55'0 0.0
2016-Feb-07 20:33N 38°28' E 015°55'0 0.0
2016-Feb-07 19:33N 38°28' E 015°55'0 0.0
2016-Feb-07 18:33N 38°28' E 015°55'0 0.0
2016-Feb-07 17:33N 38°28' E 015°55'0 0.0
2016-Feb-07 16:30N 38°28' E 015°55'0 0.0
2016-Feb-07 15:33N 38°28' E 015°55'0 0.0
2016-Feb-07 14:33N 38°28' E 015°55'0 0.0
2016-Feb-07 13:33N 38°28' E 015°55'0 0.0
2016-Feb-07 12:33N 38°28' E 015°55'0 0.0
2016-Feb-07 11:33N 38°28' E 015°55'0 0.0
2016-Feb-07 10:33N 38°28' E 015°55'0 0.0
2016-Feb-07 09:33N 38°28' E 015°55'0 0.0
2016-Feb-07 08:33N 38°28' E 015°55'0 0.0
2016-Feb-07 07:33N 38°28' E 015°55'0 0.0
2016-Feb-07 06:30N 38°28' E 015°55'0 0.0
2016-Feb-07 05:33N 38°28' E 015°55'0 0.0
2016-Feb-07 04:33N 38°28' E 015°55'0 0.0
2016-Feb-07 03:33N 38°28' E 015°55'7 0.7
2016-Feb-06 18:22N 38°27' E 015°46'1720.3
2016-Feb-06 17:31N 38°26' E 015°24'8 7.7
2016-Feb-06 16:32N 38°25' E 015°14'8 8.4
2016-Feb-06 15:33N 38°21' E 015°06'4615.3
2016-Feb-06 12:33N 38°22' E 014°07'1515.5
2016-Feb-06 11:33N 38°23' E 013°47'1515.3
2016-Feb-06 10:33N 38°25' E 013°28'1413.7
2016-Feb-06 09:33N 38°26' E 013°11'1212.1
2016-Feb-06 08:33N 38°27' E 012°55'1212.3
2016-Feb-06 07:33N 38°28' E 012°40'86217.6
2016-Feb-04 06:33N 36°03' W 005°08'1514.7
2016-Feb-04 05:33N 36°09' W 005°25'1 1.0
2016-Feb-04 04:33N 36°09' W 005°26'0 0.0
2016-Feb-04 03:33N 36°09' W 005°26'0 0.0
2016-Feb-04 02:29N 36°09' W 005°26'0 0.0
2016-Feb-04 01:32N 36°09' W 005°26'0 0.0
2016-Feb-04 00:26N 36°09' W 005°26'0 0.0
2016-Feb-03 23:20N 36°09' W 005°26'0 0.0
2016-Feb-03 22:32N 36°09' W 005°26'0 0.0
2016-Feb-03 21:23N 36°09' W 005°26'0 0.0
2016-Feb-03 20:32N 36°09' W 005°26'0 0.0
2016-Feb-03 19:32N 36°09' W 005°26'0 0.0
2016-Feb-03 18:32N 36°09' W 005°26'0 0.0
2016-Feb-03 17:33N 36°09' W 005°26'5 5.0
2016-Feb-03 16:32N 36°05' W 005°22'5 5.3
2016-Feb-03 15:34N 36°00' W 005°21'14315.9
2016-Feb-03 06:33N 36°02' W 008°18'1717.2
2016-Feb-03 05:33N 36°05' W 008°39'1717.3
2016-Feb-03 04:33N 36°08' W 009°00'1716.6
2016-Feb-03 03:29N 36°11' W 009°21'1516.4
2016-Feb-03 02:33N 36°13' W 009°40'1716.9
2016-Feb-03 01:33N 36°16' W 010°01'1716.7
2016-Feb-03 00:33N 36°19' W 010°21'63416.6
2016-Feb-01 10:28N 38°07' W 023°26'1415.3
2016-Feb-01 09:33N 38°10' W 023°43'1515.4
2016-Feb-01 08:33N 38°12' W 024°03'1515.3
2016-Feb-01 07:33N 38°15' W 024°22'1615.5
2016-Feb-01 06:33N 38°17' W 024°41'1515.4
2016-Feb-01 05:33N 38°20' W 025°01'1615.5
2016-Feb-01 04:33N 38°18' W 025°20'1615.6
2016-Feb-01 03:33N 38°15' W 025°40'1615.5
2016-Feb-01 02:33N 38°13' W 025°59'1515.5
2016-Feb-01 01:33N 38°10' W 026°19'1615.7
2016-Feb-01 00:34N 38°07' W 026°38'1615.7
2016-Jan-31 23:33N 38°06' W 026°58'1615.7
2016-Jan-31 22:33N 38°04' W 027°18'1615.7
2016-Jan-31 21:33N 38°02' W 027°38'1615.5
2016-Jan-31 20:33N 37°60' W 027°57'1615.6
2016-Jan-31 19:33N 37°57' W 028°17'1515.5
2016-Jan-31 18:33N 37°55' W 028°36'1615.6
2016-Jan-31 17:33N 37°53' W 028°56'1615.6
2016-Jan-31 16:33N 37°51' W 029°15'1515.4
2016-Jan-31 15:33N 37°49' W 029°35'1615.6
2016-Jan-31 14:33N 37°46' W 029°54'1715.5
2016-Jan-31 13:28N 37°44' W 030°15'3715.4
2016-Jan-31 11:04N 37°39' W 031°02'815.3
2016-Jan-31 10:33N 37°37' W 031°11'  
Track history (hours):
 
Tides and Currents Weather Stations Pressure Air Temp Water Temp Dewpoint Dewpoint Depression Visibility Wind Speed Wind Dir Waves Ship Positions

MSC Ingrid

Last reported at 2016-Feb-09 20:29 UTC. Time now 2016-Feb-09 20:40 UTC.
Position N 39°26' W 000°20'.

Length 294 m; draft 8.2 m.

Type: Ship (hazmat cat A). MMSI: 354505000.

Date/timePositionNaut miles runAvg speedWind from/ knotsBaromVisibWave heightAir tempDewpointWater temp
2016-Feb-09 20:29N 39°26' W 000°20'0 0.0
2016-Feb-09 19:32N 39°26' W 000°20'0 0.0
2016-Feb-09 18:29N 39°26' W 000°20'0 0.0
2016-Feb-09 17:23N 39°26' W 000°20'4 4.6
2016-Feb-09 16:33N 39°25' W 000°15'7 6.3
2016-Feb-09 15:23N 39°25' W 000°05'6315.0
2016-Feb-09 11:12N 39°20' E 001°16'1219.3
2016-Feb-09 10:33N 39°20' E 001°32'2019.7
2016-Feb-09 09:33N 39°15' E 001°56'2121.4
2016-Feb-09 08:33N 39°05' E 002°21'2221.7
2016-Feb-09 07:33N 38°55' E 002°46'2120.9
2016-Feb-09 06:33N 38°50' E 003°12'2121.0
2016-Feb-09 05:33N 38°49' E 003°39'23121.0
2016-Feb-08 18:33N 38°37' E 008°35'18918.1
2016-Feb-08 08:05N 38°28' E 012°36'1221.8
2016-Feb-08 07:33N 38°27' E 012°51'2221.7
2016-Feb-08 06:34N 38°25' E 013°19'2221.7
2016-Feb-08 05:34N 38°23' E 013°46'2222.0
2016-Feb-08 04:33N 38°22' E 014°14'2822.1
2016-Feb-08 03:18N 38°19' E 014°50'1621.5
2016-Feb-08 02:33N 38°21' E 015°10'2221.4
2016-Feb-08 01:33N 38°26' E 015°37'1413.9
2016-Feb-08 00:33N 38°27' E 015°54'0 0.4
2016-Feb-07 23:34N 38°28' E 015°55'0 0.0
2016-Feb-07 22:30N 38°28' E 015°55'0 0.0
2016-Feb-07 21:33N 38°28' E 015°55'0 0.0
2016-Feb-07 20:33N 38°28' E 015°55'0 0.0
2016-Feb-07 19:33N 38°28' E 015°55'0 0.0
2016-Feb-07 18:33N 38°28' E 015°55'0 0.0
2016-Feb-07 17:33N 38°28' E 015°55'0 0.0
2016-Feb-07 16:30N 38°28' E 015°55'0 0.0
2016-Feb-07 15:33N 38°28' E 015°55'0 0.0
2016-Feb-07 14:33N 38°28' E 015°55'0 0.0
2016-Feb-07 13:33N 38°28' E 015°55'0 0.0
2016-Feb-07 12:33N 38°28' E 015°55'0 0.0
2016-Feb-07 11:33N 38°28' E 015°55'0 0.0
2016-Feb-07 10:33N 38°28' E 015°55'0 0.0
2016-Feb-07 09:33N 38°28' E 015°55'0 0.0
2016-Feb-07 08:33N 38°28' E 015°55'0 0.0
2016-Feb-07 07:33N 38°28' E 015°55'0 0.0
2016-Feb-07 06:30N 38°28' E 015°55'0 0.0
2016-Feb-07 05:33N 38°28' E 015°55'0 0.0
2016-Feb-07 04:33N 38°28' E 015°55'0 0.0
2016-Feb-07 03:33N 38°28' E 015°55'7 0.7
2016-Feb-06 18:22N 38°27' E 015°46'1720.3
2016-Feb-06 17:31N 38°26' E 015°24'8 7.7
2016-Feb-06 16:32N 38°25' E 015°14'8 8.4
2016-Feb-06 15:33N 38°21' E 015°06'4615.3
2016-Feb-06 12:33N 38°22' E 014°07'1515.5
2016-Feb-06 11:33N 38°23' E 013°47'1515.3
2016-Feb-06 10:33N 38°25' E 013°28'1413.7
2016-Feb-06 09:33N 38°26' E 013°11'1212.1
2016-Feb-06 08:33N 38°27' E 012°55'1212.3
2016-Feb-06 07:33N 38°28' E 012°40'86217.6
2016-Feb-04 06:33N 36°03' W 005°08'1514.7
2016-Feb-04 05:33N 36°09' W 005°25'1 1.0
2016-Feb-04 04:33N 36°09' W 005°26'0 0.0
2016-Feb-04 03:33N 36°09' W 005°26'0 0.0
2016-Feb-04 02:29N 36°09' W 005°26'0 0.0
2016-Feb-04 01:32N 36°09' W 005°26'0 0.0
2016-Feb-04 00:26N 36°09' W 005°26'0 0.0
2016-Feb-03 23:20N 36°09' W 005°26'0 0.0
2016-Feb-03 22:32N 36°09' W 005°26'0 0.0
2016-Feb-03 21:23N 36°09' W 005°26'0 0.0
2016-Feb-03 20:32N 36°09' W 005°26'0 0.0
2016-Feb-03 19:32N 36°09' W 005°26'0 0.0
2016-Feb-03 18:32N 36°09' W 005°26'0 0.0
2016-Feb-03 17:33N 36°09' W 005°26'5 5.0
2016-Feb-03 16:32N 36°05' W 005°22'5 5.3
2016-Feb-03 15:34N 36°00' W 005°21'14315.9
2016-Feb-03 06:33N 36°02' W 008°18'1717.2
2016-Feb-03 05:33N 36°05' W 008°39'1717.3
2016-Feb-03 04:33N 36°08' W 009°00'1716.6
2016-Feb-03 03:29N 36°11' W 009°21'1516.4
2016-Feb-03 02:33N 36°13' W 009°40'1716.9
2016-Feb-03 01:33N 36°16' W 010°01'1716.7
2016-Feb-03 00:33N 36°19' W 010°21'63416.6
2016-Feb-01 10:28N 38°07' W 023°26'1415.3
2016-Feb-01 09:33N 38°10' W 023°43'1515.4
2016-Feb-01 08:33N 38°12' W 024°03'1515.3
2016-Feb-01 07:33N 38°15' W 024°22'1615.5
2016-Feb-01 06:33N 38°17' W 024°41'1515.4
2016-Feb-01 05:33N 38°20' W 025°01'1615.5
2016-Feb-01 04:33N 38°18' W 025°20'1615.6
2016-Feb-01 03:33N 38°15' W 025°40'1615.5
2016-Feb-01 02:33N 38°13' W 025°59'1515.5
2016-Feb-01 01:33N 38°10' W 026°19'1615.7
2016-Feb-01 00:34N 38°07' W 026°38'1615.7
2016-Jan-31 23:33N 38°06' W 026°58'1615.7
2016-Jan-31 22:33N 38°04' W 027°18'1615.7
2016-Jan-31 21:33N 38°02' W 027°38'1615.5
2016-Jan-31 20:33N 37°60' W 027°57'1615.6
2016-Jan-31 19:33N 37°57' W 028°17'1515.5
2016-Jan-31 18:33N 37°55' W 028°36'1615.6
2016-Jan-31 17:33N 37°53' W 028°56'1615.6
2016-Jan-31 16:33N 37°51' W 029°15'1515.4
2016-Jan-31 15:33N 37°49' W 029°35'1615.6
2016-Jan-31 14:33N 37°46' W 029°54'1715.5
2016-Jan-31 13:28N 37°44' W 030°15'3715.4
2016-Jan-31 11:04N 37°39' W 031°02'815.3
2016-Jan-31 10:33N 37°37' W 031°11'  

Dump ship's entire track history